Time;durP1;ratioP1;P1;durP2;ratioP2;P2;SDS_P1;SDS_P2;PMS_P1;PMS_P2;Temp;Humidity;BMP_temperature;BMP_pressure;BME280_temperature;BME280_humidity;BME280_pressure;Samples;Min_cycle;Max_cycle;Signal;HPM_P1;HPM_P2
2023/09/24 00:01:21;;;;;;;9.38;5.53;;;11.70;99.90;;;10.45;96.70;101573.81;5052520;28;20062;-74
2023/09/24 00:03:47;;;;;;;8.45;6.32;;;11.60;99.90;;;10.37;95.96;101573.22;5051430;28;20091;-74
2023/09/24 00:06:14;;;;;;;11.45;6.72;;;11.50;99.90;;;10.30;96.59;101576.94;5050329;28;20461;-75
2023/09/24 00:08:40;;;;;;;17.23;7.38;;;11.50;99.90;;;10.26;96.98;101582.28;5055381;28;20045;-75
2023/09/24 00:11:05;;;;;;;8.18;5.85;;;11.50;99.90;;;10.24;97.27;101591.13;5054741;28;20040;-75
2023/09/24 00:13:35;;;;;;;10.80;6.03;;;11.40;99.90;;;10.22;97.98;101592.94;5054301;28;20037;-75
2023/09/24 00:16:06;;;;;;;11.15;6.53;;;11.40;99.90;;;10.20;98.55;101590.34;5045576;28;20036;-76
2023/09/24 00:18:38;;;;;;;9.23;6.18;;;11.40;99.90;;;10.18;98.07;101591.31;5049339;28;20067;-75
2023/09/24 00:21:06;;;;;;;8.57;5.85;;;11.30;99.90;;;10.10;97.90;101594.19;5050207;28;20506;-75
2023/09/24 00:23:32;;;;;;;9.18;6.70;;;11.30;99.90;;;10.05;97.35;101606.63;5050551;28;20037;-75
2023/09/24 00:25:58;;;;;;;10.15;6.72;;;11.20;99.90;;;9.97;96.98;101598.09;5037304;28;20119;-75
2023/09/24 00:28:24;;;;;;;6.90;5.90;;;11.20;99.90;;;9.91;97.02;101607.03;5048410;28;21474;-75
2023/09/24 00:30:52;;;;;;;13.38;7.47;;;11.10;99.90;;;9.90;97.31;101607.09;5049737;28;20047;-74
2023/09/24 00:33:18;;;;;;;11.95;8.55;;;11.10;99.90;;;9.91;98.55;101611.44;5054897;28;20067;-75
2023/09/24 00:35:44;;;;;;;9.55;7.93;;;11.10;99.90;;;9.95;100.00;101616.56;5036375;28;20055;-75
2023/09/24 00:38:10;;;;;;;14.93;8.23;;;11.20;99.90;;;9.99;100.00;101623.44;5048928;28;20037;-75
2023/09/24 00:40:36;;;;;;;12.63;7.95;;;11.20;99.90;;;10.03;100.00;101622.44;5041854;28;20046;-74
2023/09/24 00:43:02;;;;;;;12.00;8.10;;;11.20;99.90;;;10.09;100.00;101625.81;5052050;28;20043;-75
2023/09/24 00:45:28;;;;;;;15.73;8.07;;;11.30;99.90;;;10.11;100.00;101629.25;5055645;28;20033;-75
2023/09/24 00:47:57;;;;;;;13.52;8.10;;;11.30;99.90;;;10.13;100.00;101636.22;5052672;28;20121;-75
2023/09/24 00:50:46;;;;;;;10.73;7.85;;;11.30;99.90;;;10.17;100.00;101636.94;5050969;28;20068;-75
2023/09/24 00:53:12;;;;;;;12.77;7.97;;;11.30;99.90;;;10.18;100.00;101636.06;4977751;28;20040;-75
2023/09/24 00:55:38;;;;;;;10.40;7.68;;;11.30;99.90;;;10.19;100.00;101635.13;4982600;28;20618;-75
2023/09/24 00:58:05;;;;;;;10.38;6.15;;;11.30;99.90;;;10.18;100.00;101631.66;4975461;28;20558;-75
2023/09/24 01:00:34;;;;;;;13.35;6.85;;;11.30;99.90;;;10.14;100.00;101632.66;4976678;28;20472;-75
2023/09/24 01:03:00;;;;;;;6.65;5.20;;;11.30;99.90;;;10.06;100.00;101635.53;4962579;28;20053;-74
2023/09/24 01:05:27;;;;;;;9.52;5.93;;;11.20;99.90;;;9.96;100.00;101641.97;4980168;28;20050;-75
2023/09/24 01:07:54;;;;;;;10.35;6.47;;;11.20;99.90;;;9.88;100.00;101641.31;4981593;28;20034;-75
2023/09/24 01:10:25;;;;;;;11.80;6.60;;;11.10;99.90;;;9.84;100.00;101642.31;4985978;28;20102;-75
2023/09/24 01:13:01;;;;;;;13.18;7.60;;;11.00;99.90;;;9.81;100.00;101640.63;5000555;28;20050;-75
2023/09/24 01:15:27;;;;;;;10.13;8.27;;;11.00;99.90;;;9.78;100.00;101643.38;4999492;28;20085;-74
2023/09/24 01:17:53;;;;;;;11.93;7.88;;;11.00;99.90;;;9.78;100.00;101642.50;4993938;28;20042;-75
2023/09/24 01:20:22;;;;;;;10.30;7.72;;;11.00;99.90;;;9.78;100.00;101639.84;4980656;28;20458;-75
2023/09/24 01:22:50;;;;;;;12.35;7.63;;;11.00;99.90;;;9.76;100.00;101658.34;4980528;28;20531;-75
2023/09/24 01:25:18;;;;;;;9.35;5.57;;;11.00;99.90;;;9.69;100.00;101663.78;4978729;28;20069;-75
2023/09/24 01:27:46;;;;;;;10.43;5.93;;;10.90;99.90;;;9.59;100.00;101666.69;4982337;28;20425;-76
2023/09/24 01:30:13;;;;;;;8.18;5.82;;;10.80;99.90;;;9.49;100.00;101665.22;5012847;28;20036;-74
2023/09/24 01:32:40;;;;;;;13.38;8.88;;;10.70;99.90;;;9.43;100.00;101660.97;5056894;28;20529;-75
2023/09/24 01:35:08;;;;;;;9.80;7.75;;;10.70;99.90;;;9.38;100.00;101657.59;5052338;28;20025;-75
2023/09/24 01:37:34;;;;;;;9.95;7.55;;;10.60;99.90;;;9.33;100.00;101659.50;5056248;28;20388;-75
2023/09/24 01:40:12;;;;;;;9.98;6.10;;;10.60;99.90;;;9.28;100.00;101661.38;5050561;28;20188;-75
2023/09/24 01:42:39;;;;;;;12.68;7.07;;;10.50;99.90;;;9.22;100.00;101661.53;5057644;28;20067;-75
2023/09/24 01:45:08;;;;;;;14.60;6.22;;;10.50;99.90;;;9.19;100.00;101669.50;5052218;28;20044;-75
2023/09/24 01:47:34;;;;;;;11.02;5.80;;;10.40;99.90;;;9.14;100.00;101668.78;5056569;28;20025;-75
2023/09/24 01:50:01;;;;;;;9.50;6.43;;;10.40;99.90;;;9.12;100.00;101665.31;5036136;28;20447;-75
2023/09/24 01:52:26;;;;;;;10.70;7.15;;;10.30;99.90;;;9.10;100.00;101667.97;5049428;28;20094;-75
2023/09/24 01:54:52;;;;;;;13.45;8.60;;;10.30;99.90;;;9.10;100.00;101677.63;5056283;28;20033;-75
2023/09/24 01:57:18;;;;;;;16.27;8.57;;;10.30;99.90;;;9.12;100.00;101681.09;5055997;28;20040;-75
2023/09/24 01:59:44;;;;;;;16.40;9.40;;;10.30;99.90;;;9.13;100.00;101678.41;5053908;28;20119;-75
2023/09/24 02:02:10;;;;;;;17.65;11.65;;;10.30;99.90;;;9.16;100.00;101683.59;5053914;28;20608;-75
2023/09/24 02:04:37;;;;;;;17.25;9.85;;;10.40;99.90;;;9.21;100.00;101686.09;5052874;28;20033;-75
2023/09/24 02:07:04;;;;;;;22.05;10.80;;;10.40;99.90;;;9.22;100.00;101686.06;5056164;28;20036;-75
2023/09/24 02:09:29;;;;;;;13.50;10.35;;;10.40;99.90;;;9.25;100.00;101693.00;5055891;28;20044;-75
2023/09/24 02:11:56;;;;;;;18.63;11.27;;;10.40;99.90;;;9.24;100.00;101686.00;5060383;28;20386;-75
2023/09/24 02:14:22;;;;;;;17.38;11.27;;;10.40;99.90;;;9.24;100.00;101689.53;5052672;28;20029;-75
2023/09/24 02:16:47;;;;;;;19.55;12.80;;;10.40;99.90;;;9.23;100.00;101685.16;5060711;28;20029;-75
2023/09/24 02:19:14;;;;;;;17.85;12.23;;;10.40;99.90;;;9.25;100.00;101690.38;5057166;28;20395;-75
2023/09/24 02:21:40;;;;;;;20.85;12.70;;;10.50;99.90;;;9.23;100.00;101687.78;5055680;28;20027;-75
2023/09/24 02:24:08;;;;;;;14.57;9.77;;;10.40;99.90;;;9.21;100.00;101696.59;5052895;28;20033;-75
2023/09/24 02:26:34;;;;;;;13.20;9.27;;;10.40;99.90;;;9.16;100.00;101704.63;5043048;28;20506;-75
2023/09/24 02:29:00;;;;;;;14.15;9.90;;;10.40;99.90;;;9.13;100.00;101699.41;5058938;28;20041;-75
2023/09/24 02:31:26;;;;;;;19.10;10.50;;;10.30;99.90;;;9.10;100.00;101701.28;5055880;28;20040;-75
2023/09/24 02:33:52;;;;;;;20.88;12.70;;;10.30;99.90;;;9.06;100.00;101712.75;5058711;28;20120;-75
2023/09/24 02:36:18;;;;;;;24.65;14.07;;;10.30;99.90;;;8.99;100.00;101720.78;5041072;28;20036;-75
2023/09/24 02:38:44;;;;;;;18.30;12.48;;;10.20;99.90;;;8.94;100.00;101720.03;5058621;28;20040;-75
2023/09/24 02:41:11;;;;;;;25.15;13.82;;;10.20;99.90;;;8.94;100.00;101720.03;5059157;28;20044;-75
2023/09/24 02:43:37;;;;;;;23.02;16.10;;;10.20;99.90;;;8.94;100.00;101725.31;5056607;28;20044;-75
2023/09/24 02:46:05;;;;;;;27.73;16.33;;;10.20;99.90;;;8.94;100.00;101724.41;5054811;28;20528;-75
2023/09/24 02:48:32;;;;;;;25.00;17.40;;;10.20;99.90;;;9.03;100.00;101729.47;5052116;28;20052;-75
2023/09/24 02:51:08;;;;;;;31.10;17.63;;;10.90;99.90;;;9.16;100.00;101741.41;5053040;28;20035;-75
2023/09/24 02:53:35;;;;;;;34.15;18.05;;;10.40;99.90;;;9.27;100.00;101742.91;5033626;28;20246;-75
2023/09/24 02:56:04;;;;;;;35.13;18.67;;;10.50;99.90;;;9.36;100.00;101746.16;5056519;28;20048;-75
2023/09/24 02:58:33;;;;;;;29.20;18.00;;;10.60;99.90;;;9.49;100.00;101753.75;5055403;28;20036;-75
2023/09/24 03:00:59;;;;;;;28.55;18.20;;;10.70;99.90;;;9.56;100.00;101753.53;5053641;28;20058;-75
2023/09/24 03:03:25;;;;;;;33.13;18.90;;;10.80;99.90;;;9.61;100.00;101758.66;5052287;28;20033;-75
2023/09/24 03:05:51;;;;;;;31.67;17.70;;;10.90;99.90;;;9.68;100.00;101767.28;5062258;28;20114;-75
2023/09/24 03:08:16;;;;;;;32.50;17.80;;;10.90;99.90;;;9.72;100.00;101775.03;5054496;28;20036;-75
2023/09/24 03:10:42;;;;;;;33.75;18.25;;;10.90;99.90;;;9.74;100.00;101775.88;5054170;28;20050;-75
2023/09/24 03:13:08;;;;;;;30.55;18.52;;;11.00;99.90;;;9.79;100.00;101776.59;5051868;28;20123;-75
2023/09/24 03:15:34;;;;;;;34.75;20.52;;;11.00;99.90;;;9.80;100.00;101773.03;5049439;28;20041;-75
2023/09/24 03:18:00;;;;;;;38.38;20.50;;;11.00;99.90;;;9.84;100.00;101779.09;5052978;28;20513;-75
2023/09/24 03:20:27;;;;;;;40.80;21.48;;;11.10;99.90;;;9.84;100.00;101777.31;5051667;28;20047;-75
2023/09/24 03:23:02;;;;;;;35.47;21.05;;;11.00;99.90;;;9.84;100.00;101781.72;5054598;28;20037;-75
2023/09/24 03:25:29;;;;;;;39.80;23.08;;;11.10;99.90;;;9.82;100.00;101778.28;5050487;28;20033;-75
2023/09/24 03:27:58;;;;;;;36.03;21.00;;;11.00;99.90;;;9.80;100.00;101780.09;5050507;28;20040;-75
2023/09/24 03:30:25;;;;;;;40.85;21.35;;;11.00;99.90;;;9.79;100.00;101786.25;5060387;28;20106;-75
2023/09/24 03:32:52;;;;;;;38.70;22.50;;;11.00;99.90;;;9.73;100.00;101794.31;5054340;28;20033;-75
2023/09/24 03:35:23;;;;;;;40.20;21.90;;;10.90;99.90;;;9.71;100.00;101799.59;5053719;28;20040;-75
2023/09/24 03:37:49;;;;;;;51.67;24.80;;;10.90;99.90;;;9.70;100.00;101799.63;5050576;28;20043;-75
2023/09/24 03:40:25;;;;;;;29.00;18.70;;;10.90;99.90;;;9.73;100.00;101805.69;5051563;28;20029;-75
2023/09/24 03:42:51;;;;;;;46.25;23.50;;;10.90;99.90;;;9.71;100.00;101801.38;5039271;28;20056;-75
2023/09/24 03:45:19;;;;;;;49.45;24.08;;;10.90;99.90;;;9.69;100.00;101800.53;5052315;28;20105;-75
2023/09/24 03:47:46;;;;;;;28.58;17.70;;;10.80;99.90;;;9.63;100.00;101805.06;5033837;28;20040;-75
2023/09/24 03:50:14;;;;;;;51.83;24.00;;;10.80;99.90;;;9.57;100.00;101810.47;5052201;28;20697;-75
2023/09/24 03:52:41;;;;;;;40.50;21.75;;;10.80;99.90;;;9.53;100.00;101818.50;5052943;28;20535;-74
2023/09/24 03:55:08;;;;;;;31.95;20.55;;;10.70;99.90;;;9.50;100.00;101816.78;5050259;28;20059;-75
2023/09/24 03:57:35;;;;;;;37.72;21.50;;;10.70;99.90;;;9.48;100.00;101820.34;5056716;28;20115;-75
2023/09/24 04:00:01;;;;;;;44.33;22.77;;;10.60;99.90;;;9.47;100.00;101832.63;5050476;28;20064;-75
2023/09/24 04:02:26;;;;;;;57.50;26.65;;;10.60;99.90;;;9.43;100.00;101833.59;5052889;28;20388;-75
2023/09/24 04:04:53;;;;;;;32.83;20.48;;;10.60;99.90;;;9.41;100.00;101841.53;5054857;28;20037;-75
2023/09/24 04:07:20;;;;;;;33.72;20.63;;;10.60;99.90;;;9.38;100.00;101840.75;5057703;28;20071;-75
2023/09/24 04:09:47;;;;;;;33.78;21.15;;;10.60;99.90;;;9.36;100.00;101847.81;5037172;28;20438;-75
2023/09/24 04:12:13;;;;;;;36.75;21.10;;;10.60;99.90;;;9.35;100.00;101851.31;5033200;28;20039;-75
2023/09/24 04:14:40;;;;;;;46.05;24.73;;;10.60;99.90;;;9.33;100.00;101853.13;5041065;28;20692;-76
2023/09/24 04:17:06;;;;;;;39.80;23.70;;;10.60;99.90;;;9.33;100.00;101859.28;5056617;28;20025;-75
2023/09/24 04:19:32;;;;;;;45.58;24.38;;;10.50;99.90;;;9.32;100.00;101864.56;5054268;28;20029;-75
2023/09/24 04:21:58;;;;;;;33.22;20.05;;;10.50;99.90;;;9.30;100.00;101861.09;5050615;28;20033;-75
2023/09/24 04:24:25;;;;;;;63.83;19.65;;;10.50;99.90;;;9.28;100.00;101866.38;5036129;28;20563;-75
2023/09/24 04:26:54;;;;;;;28.80;18.58;;;10.50;99.90;;;9.26;100.00;101869.94;5051138;28;20538;-75
2023/09/24 04:29:20;;;;;;;53.50;21.90;;;10.40;99.90;;;9.21;100.00;101868.28;5052422;28;20044;-75
2023/09/24 04:31:46;;;;;;;33.95;20.55;;;10.40;99.90;;;9.18;100.00;101864.88;5034963;28;20557;-75
2023/09/24 04:34:12;;;;;;;36.50;21.83;;;10.40;99.90;;;9.15;100.00;101863.16;5052792;28;20032;-75
2023/09/24 04:36:42;;;;;;;30.60;18.40;;;10.40;99.90;;;9.14;100.00;101874.59;5052180;28;20044;-75
2023/09/24 04:39:12;;;;;;;41.92;22.80;;;10.30;99.90;;;9.09;100.00;101873.81;5048750;28;20044;-75
2023/09/24 04:41:40;;;;;;;33.10;21.48;;;10.30;99.90;;;9.08;100.00;101877.34;5057007;28;20656;-75
2023/09/24 04:44:07;;;;;;;29.75;18.63;;;10.30;99.90;;;9.04;100.00;101880.94;5048746;28;20061;-75
2023/09/24 04:46:34;;;;;;;26.98;18.88;;;10.30;99.90;;;9.02;100.00;101887.97;5040696;28;20056;-75
2023/09/24 04:49:02;;;;;;;40.03;21.88;;;10.20;99.90;;;9.00;100.00;101892.41;5050110;28;20104;-75
2023/09/24 04:51:29;;;;;;;33.83;19.90;;;10.20;99.90;;;8.99;100.00;101896.78;5048717;28;20680;-75
2023/09/24 04:53:55;;;;;;;34.30;19.90;;;10.20;99.90;;;8.98;100.00;101902.06;5044637;28;20119;-75
2023/09/24 04:56:20;;;;;;;35.33;20.63;;;10.20;99.90;;;8.97;100.00;101903.00;5052110;28;20773;-75
2023/09/24 04:58:46;;;;;;;28.58;18.98;;;10.10;99.90;;;8.96;100.00;101907.38;5053057;28;20075;-75
2023/09/24 05:01:12;;;;;;;31.30;19.40;;;10.10;99.90;;;8.96;100.00;101906.50;5051484;28;20033;-75
2023/09/24 05:03:38;;;;;;;46.55;24.92;;;10.10;99.90;;;8.97;100.00;101906.47;5038144;28;20062;-75
2023/09/24 05:06:04;;;;;;;36.05;22.42;;;10.10;99.90;;;8.99;100.00;101916.97;5055740;28;20033;-75
2023/09/24 05:08:31;;;;;;;59.33;27.00;;;10.20;99.90;;;9.01;100.00;101921.28;5053478;28;20036;-77
2023/09/24 05:10:57;;;;;;;64.50;26.60;;;10.20;99.90;;;9.04;100.00;101925.59;5049728;28;20082;-75
2023/09/24 05:13:23;;;;;;;34.00;20.52;;;10.20;99.90;;;9.06;100.00;101934.31;5048917;28;20059;-75
2023/09/24 05:15:54;;;;;;;40.88;22.38;;;10.20;99.90;;;9.08;100.00;101943.03;5053423;28;20036;-75
2023/09/24 05:18:23;;;;;;;59.10;27.42;;;10.20;99.90;;;9.13;100.00;101943.78;5053527;28;20038;-75
2023/09/24 05:20:49;;;;;;;45.70;24.35;;;10.30;99.90;;;9.17;100.00;101950.72;5052975;28;20098;-75
2023/09/24 05:23:15;;;;;;;58.42;26.20;;;10.30;99.90;;;9.23;100.00;101960.25;5052414;28;20057;-75
2023/09/24 05:25:41;;;;;;;222.25;32.00;;;10.40;99.90;;;9.29;100.00;101954.84;5038321;28;21419;-75
2023/09/24 05:28:07;;;;;;;60.40;27.40;;;10.40;99.90;;;9.39;100.00;101961.63;5050001;28;20564;-76
2023/09/24 05:30:32;;;;;;;179.95;32.38;;;10.50;99.90;;;9.50;100.00;101977.16;5054538;28;20534;-75
2023/09/24 05:32:58;;;;;;;43.55;26.85;;;10.60;99.90;;;9.62;100.00;101976.88;5053460;28;20033;-75
2023/09/24 05:35:24;;;;;;;63.30;29.38;;;10.70;99.90;;;9.75;100.00;101990.63;5047077;28;20033;-75
2023/09/24 05:37:50;;;;;;;149.25;34.33;;;10.80;99.90;;;9.88;100.00;101988.56;5033253;28;20123;-75
2023/09/24 05:40:16;;;;;;;218.23;37.58;;;11.00;99.90;;;10.01;100.00;101995.28;5050261;28;20566;-74
2023/09/24 05:42:42;;;;;;;451.73;40.50;;;11.10;99.90;;;10.14;100.00;102005.50;5054808;28;20080;-75
2023/09/24 05:45:09;;;;;;;424.85;37.40;;;11.20;99.90;;;10.22;100.00;102006.19;5039771;28;20066;-75
2023/09/24 05:47:35;;;;;;;302.30;34.70;;;11.30;99.90;;;10.31;100.00;102007.78;5053468;28;20029;-74
2023/09/24 05:50:03;;;;;;;217.93;31.40;;;11.40;99.90;;;10.37;100.00;102016.38;5052368;28;20063;-75
2023/09/24 05:52:30;;;;;;;282.60;33.83;;;11.40;99.90;;;10.48;100.00;102021.38;5057163;28;20493;-75
2023/09/24 05:54:57;;;;;;;239.38;30.35;;;11.50;99.90;;;10.58;100.00;102017.59;5052769;28;20510;-75
2023/09/24 05:57:26;;;;;;;223.65;28.95;;;11.60;99.90;;;10.68;100.00;102036.66;5057010;28;20104;-75
2023/09/24 05:59:53;;;;;;;335.15;34.15;;;11.70;99.90;;;10.80;100.00;102038.97;5053010;28;20025;-75
2023/09/24 06:02:26;;;;;;;346.58;35.35;;;11.80;99.90;;;10.92;100.00;102047.44;5050546;28;20056;-75
2023/09/24 06:04:55;;;;;;;263.90;31.75;;;12.00;99.90;;;11.03;100.00;102056.78;5057141;28;20021;-75
2023/09/24 06:07:21;;;;;;;309.98;32.92;;;12.00;99.90;;;11.12;100.00;102060.06;5039797;28;20029;-75
2023/09/24 06:09:48;;;;;;;335.13;34.45;;;12.10;99.90;;;11.18;100.00;102060.75;5070611;28;20406;-75
2023/09/24 06:12:14;;;;;;;274.05;33.40;;;12.20;99.90;;;11.27;100.00;102064.91;5051284;28;20033;-75
2023/09/24 06:14:40;;;;;;;367.58;31.98;;;12.30;99.90;;;11.36;100.00;102063.78;5048956;28;20029;-75
2023/09/24 06:17:05;;;;;;;333.23;30.77;;;12.40;99.90;;;11.46;100.00;102073.19;5059410;28;20414;-75
2023/09/24 06:19:32;;;;;;;286.17;31.25;;;12.40;99.90;;;11.56;100.00;102074.66;5055525;28;20035;-75
2023/09/24 06:21:58;;;;;;;241.27;29.40;;;12.50;99.90;;;11.62;100.00;102081.50;5053497;28;20046;-75
2023/09/24 06:24:24;;;;;;;207.68;28.33;;;12.60;99.90;;;11.68;100.00;102086.59;5051984;28;20459;-75
2023/09/24 06:26:49;;;;;;;162.77;26.30;;;12.70;99.90;;;11.80;100.00;102088.88;5043362;28;20087;-75
2023/09/24 06:29:15;;;;;;;117.30;24.63;;;12.70;99.90;;;11.90;100.00;102092.16;5055721;28;20499;-75
2023/09/24 06:31:41;;;;;;;67.10;21.73;;;12.90;99.90;;;11.97;100.00;102103.38;5043851;28;20494;-75
2023/09/24 06:34:08;;;;;;;146.70;26.58;;;12.90;99.90;;;12.08;100.00;102102.13;5053674;28;20063;-75
2023/09/24 06:36:34;;;;;;;191.65;26.98;;;13.00;99.90;;;12.16;100.00;102108.94;5053353;28;20422;-74
2023/09/24 06:39:00;;;;;;;289.35;29.50;;;13.10;99.90;;;12.21;100.00;102107.91;5051116;28;20029;-76
2023/09/24 06:41:25;;;;;;;210.18;28.25;;;13.20;99.90;;;12.27;100.00;102113.00;5056551;28;20039;-75
2023/09/24 06:43:52;;;;;;;191.10;27.10;;;13.20;99.90;;;12.34;100.00;102124.22;5054042;28;20111;-75
2023/09/24 06:46:18;;;;;;;206.50;28.02;;;13.30;99.90;;;12.37;100.00;102131.19;5044218;28;20130;-75
2023/09/24 06:48:43;;;;;;;123.63;24.48;;;13.30;99.90;;;12.44;100.00;102135.34;5051138;28;20738;-75
2023/09/24 06:51:10;;;;;;;99.22;25.50;;;13.40;99.90;;;12.55;100.00;102148.22;5048185;28;20299;-75
2023/09/24 06:53:39;;;;;;;274.50;33.30;;;13.40;99.90;;;12.60;100.00;102146.31;5057299;28;20063;-75
2023/09/24 06:56:08;;;;;;;222.45;29.48;;;13.50;99.90;;;12.66;100.00;102157.53;5055532;28;20052;-75
2023/09/24 06:58:35;;;;;;;214.35;29.63;;;13.60;99.90;;;12.71;100.00;102162.66;5054920;28;20587;-75
2023/09/24 07:01:03;;;;;;;256.92;34.08;;;13.60;99.90;;;12.81;100.00;102156.16;5053189;28;20029;-75
2023/09/24 07:03:30;;;;;;;48.85;24.00;;;13.70;99.90;;;12.91;100.00;102157.59;5034164;28;20521;-76
2023/09/24 07:05:56;;;;;;;185.50;32.05;;;13.80;99.90;;;13.02;100.00;102166.94;5057672;28;20089;-75
2023/09/24 07:08:22;;;;;;;109.15;25.48;;;13.90;99.90;;;13.14;100.00;102169.16;5054679;28;20130;-76
2023/09/24 07:11:19;;;;;;;178.45;29.20;;;14.10;99.90;;;13.28;100.00;102166.94;5051117;28;20068;-75
2023/09/24 07:13:45;;;;;;;165.10;25.33;;;14.20;99.90;;;13.43;100.00;102167.31;5048659;28;20594;-75
2023/09/24 07:16:11;;;;;;;45.15;22.17;;;14.20;99.90;;;13.52;100.00;102167.00;5055168;28;20036;-76
2023/09/24 07:18:37;;;;;;;383.83;33.65;;;14.40;99.90;;;13.69;100.00;102176.94;5055180;28;20055;-76
2023/09/24 07:21:02;;;;;;;40.47;22.08;;;14.50;99.90;;;13.73;100.00;102173.28;5054060;28;20079;-77
2023/09/24 07:23:28;;;;;;;102.72;25.83;;;15.00;99.90;;;13.83;100.00;102179.97;5053727;28;20486;-76
2023/09/24 07:25:54;;;;;;;78.88;23.55;;;14.70;99.90;;;13.92;100.00;102179.59;5052455;28;20041;-76
2023/09/24 07:28:24;;;;;;;77.22;24.15;;;14.70;99.90;;;13.92;100.00;102184.91;5053678;28;20041;-75
2023/09/24 07:30:52;;;;;;;67.47;24.73;;;14.80;99.90;;;14.02;100.00;102184.59;5066432;28;20048;-76
2023/09/24 07:33:18;;;;;;;54.20;24.17;;;14.90;99.90;;;14.16;100.00;102196.34;5055107;28;20025;-77
2023/09/24 07:35:44;;;;;;;43.08;22.33;;;14.90;99.90;;;14.22;100.00;102200.56;5055568;28;20521;-76
2023/09/24 07:38:10;;;;;;;36.75;20.95;;;15.00;99.90;;;14.48;100.00;102206.63;5051516;28;20495;-76
2023/09/24 07:40:36;;;;;;;38.17;20.27;;;15.20;99.90;;;14.73;98.78;102204.78;5054066;28;20051;-76
2023/09/24 07:43:02;;;;;;;32.88;19.50;;;15.40;99.90;;;15.17;97.63;102202.03;5049457;28;20056;-75
2023/09/24 07:45:28;;;;;;;36.78;18.90;;;15.90;99.90;;;15.84;93.86;102209.81;5052134;28;20282;-76
2023/09/24 07:47:54;;;;;;;38.63;20.23;;;16.30;99.90;;;15.92;92.22;102210.34;5052804;28;20653;-75
2023/09/24 07:50:19;;;;;;;25.33;16.92;;;16.50;99.90;;;16.05;91.07;102213.31;5048407;28;20035;-76
2023/09/24 07:52:46;;;;;;;28.77;16.50;;;16.60;99.90;;;16.11;89.10;102213.00;5034636;28;20455;-75
2023/09/24 07:55:12;;;;;;;21.75;13.77;;;16.70;99.90;;;16.36;87.62;102218.88;5060058;28;20119;-76
2023/09/24 07:57:58;;;;;;;26.83;14.25;;;17.20;99.90;;;17.37;84.50;102231.69;5052503;28;20037;-76
2023/09/24 08:00:23;;;;;;;20.83;13.07;;;17.90;99.90;;;18.20;81.25;102237.97;4991088;28;20065;-76
2023/09/24 08:02:49;;;;;;;16.27;11.05;;;18.50;99.90;;;18.93;78.58;102248.16;4963763;28;20097;-76
2023/09/24 08:05:15;;;;;;;19.40;10.32;;;19.10;99.90;;;19.46;75.69;102248.63;4961177;28;20073;-76
2023/09/24 08:07:41;;;;;;;15.82;9.50;;;20.00;99.90;;;21.08;71.27;102269.63;4982730;28;20506;-76
2023/09/24 08:10:07;;;;;;;16.15;9.30;;;21.50;99.90;;;22.54;67.57;102282.78;4983234;28;20035;-76
2023/09/24 08:12:32;;;;;;;17.13;9.10;;;23.20;99.90;;;23.88;64.22;102292.41;4956813;28;20089;-76
2023/09/24 08:14:58;;;;;;;14.23;8.05;;;24.80;99.90;;;25.06;60.83;102303.56;4963246;28;20045;-75
2023/09/24 08:17:24;;;;;;;13.73;7.35;;;26.00;99.90;;;26.01;58.15;102310.81;4984477;28;20374;-76
2023/09/24 08:19:49;;;;;;;14.05;6.75;;;27.00;99.90;;;26.59;55.97;102327.28;4998600;28;20463;-76
2023/09/24 08:22:15;;;;;;;14.43;7.10;;;27.80;99.90;;;27.13;54.32;102335.91;4976170;28;20042;-75
2023/09/24 08:24:42;;;;;;;9.93;6.68;;;28.20;99.90;;;27.28;52.98;102357.13;4975069;28;20045;-76
2023/09/24 08:27:07;;;;;;;10.32;6.38;;;28.50;99.90;;;27.51;52.25;102363.13;4981789;28;20026;-76
2023/09/24 08:29:33;;;;;;;12.27;5.30;;;28.70;99.90;;;27.64;51.50;102373.66;4966034;28;20038;-76
2023/09/24 08:31:59;;;;;;;3.70;3.03;;;29.50;99.90;;;27.83;50.96;102376.31;4957092;28;20044;-76
2023/09/24 08:34:26;;;;;;;2.13;1.70;;;29.00;99.90;;;27.74;50.43;102382.63;4965238;28;20029;-76
2023/09/24 08:36:52;;;;;;;6.07;3.17;;;29.10;99.90;;;27.90;50.30;102390.16;4997955;28;20075;-76
2023/09/24 08:39:18;;;;;;;11.10;5.28;;;29.20;99.90;;;28.00;48.85;102401.84;5049855;28;20074;-76
2023/09/24 08:41:44;;;;;;;9.50;3.63;;;29.20;98.70;;;27.95;48.30;102402.28;5054398;28;20052;-76
2023/09/24 08:44:17;;;;;;;11.98;3.55;;;29.10;98.90;;;27.96;47.86;102425.63;5052407;28;20524;-76
2023/09/24 08:46:46;;;;;;;8.55;3.42;;;29.00;98.60;;;27.76;47.86;102422.06;5049541;28;20048;-76
2023/09/24 08:49:13;;;;;;;9.15;3.20;;;28.70;98.90;;;27.65;48.22;102429.50;5049157;28;20498;-76
2023/09/24 08:51:40;;;;;;;14.38;8.35;;;28.40;96.60;;;27.14;48.35;102428.69;5053813;28;20054;-76
2023/09/24 08:54:07;;;;;;;6.30;2.13;;;28.40;98.70;;;26.77;47.63;102422.03;5034911;28;20387;-76
2023/09/24 08:56:33;;;;;;;4.75;3.38;;;27.70;96.30;;;26.23;48.00;102420.47;5051840;28;20497;-75
2023/09/24 08:58:59;;;;;;;7.90;2.28;;;26.90;97.00;;;25.46;49.51;102421.56;5049362;28;20545;-76
2023/09/24 09:01:25;;;;;;;6.05;3.65;;;26.40;98.00;;;24.99;50.23;102407.47;5047456;28;20044;-76
2023/09/24 09:03:52;;;;;;;10.90;3.60;;;26.00;99.60;;;24.87;51.08;102403.91;5049776;28;20041;-76
2023/09/24 09:06:39;;;;;;;11.88;3.25;;;25.60;99.30;;;24.63;50.73;102411.28;5056664;28;20032;-77
2023/09/24 09:09:05;;;;;;;5.82;2.70;;;25.20;99.90;;;24.41;51.84;102404.88;5052184;28;20044;-76
2023/09/24 09:11:46;;;;;;;8.75;3.08;;;25.00;99.90;;;24.23;51.82;102401.78;5053862;28;20063;-75
2023/09/24 09:14:13;;;;;;;7.35;2.55;;;24.60;99.90;;;23.79;52.13;102389.97;5044550;28;20391;-76
2023/09/24 09:16:57;;;;;;;10.80;4.60;;;24.30;99.90;;;23.40;53.33;102405.41;5037975;28;20032;-76
2023/09/24 09:19:45;;;;;;;11.05;3.25;;;23.80;99.90;;;23.01;54.91;102390.41;5053150;28;20151;-76
2023/09/24 09:22:27;;;;;;;6.07;2.15;;;23.50;99.90;;;22.68;55.48;102384.66;5055233;28;20469;-76
2023/09/24 09:25:09;;;;;;;7.18;2.33;;;23.30;99.90;;;22.46;55.31;102385.34;5041215;28;20036;-76
2023/09/24 09:27:42;;;;;;;8.43;2.38;;;23.00;99.90;;;22.07;56.12;102375.53;5054947;28;20028;-76
2023/09/24 09:30:16;;;;;;;9.02;2.25;;;22.80;99.90;;;21.91;57.05;102376.59;5059750;28;20530;-76
2023/09/24 09:32:47;;;;;;;13.32;2.33;;;22.50;99.90;;;21.56;56.76;102375.47;5053640;28;20037;-76
2023/09/24 09:35:16;;;;;;;8.73;2.17;;;22.40;99.90;;;21.44;56.63;102377.97;5054844;28;20391;-76
2023/09/24 09:37:43;;;;;;;9.15;2.20;;;22.20;99.90;;;21.38;57.04;102378.38;5038637;28;20487;-76
2023/09/24 09:40:11;;;;;;;7.35;2.10;;;22.20;99.90;;;21.27;57.56;102373.72;5043964;28;20061;-76
2023/09/24 09:42:38;;;;;;;6.45;2.72;;;22.20;99.90;;;21.39;58.29;102369.38;5041541;28;20047;-75
2023/09/24 09:45:10;;;;;;;7.28;1.95;;;22.10;99.90;;;21.42;56.99;102373.69;5058077;28;20037;-75
2023/09/24 09:48:04;;;;;;;8.55;2.20;;;22.20;99.90;;;21.43;56.54;102368.25;5054256;28;20111;-75
2023/09/24 09:50:41;;;;;;;10.57;1.92;;;22.10;99.90;;;21.25;57.47;102358.69;5055347;28;20032;-75
2023/09/24 09:53:09;;;;;;;8.90;2.30;;;22.10;99.90;;;21.26;57.22;102361.28;5060866;28;20037;-76
2023/09/24 09:55:42;;;;;;;6.35;2.28;;;22.10;99.90;;;21.29;56.83;102366.47;5056920;28;20118;-75
2023/09/24 09:58:16;;;;;;;9.05;2.38;;;22.00;99.90;;;21.28;57.39;102371.91;5052382;28;20024;-75
2023/09/24 10:00:42;;;;;;;9.25;1.70;;;21.80;99.90;;;20.69;57.42;102364.97;5056199;28;20499;-75
2023/09/24 10:03:11;;;;;;;6.40;1.75;;;21.50;99.90;;;20.44;58.10;102359.41;5040139;28;20040;-75